GMAD/AGA METAR and TAF weather

Enter ICAO airport designator
Station Type Date Time Source
GMAD METAR 2022/01/29 00:00 UTC NOAA

GMAD 290000Z 07018KT 8000 NSC 19/02 Q1019 NOSIG


Station Type Date Time Source
GMAD Decoded METAR 2022/01/29 00:00 UTC NOAA

Agadir Al Massira, Morocco (GMAD) 30-20N 009-24W 74M
Jan 28, 2022 - 07:00 PM EST / 2022.01.29 0000 UTC
Wind: from the ENE (070 degrees) at 21 MPH (18 KT):0
Visibility: 4 mile(s):0
Temperature: 66 F (19 C)
Dew Point: 35 F (2 C)
Relative Humidity: 32%
Pressure (altimeter): 30.09 in. Hg (1019 hPa)
ob: GMAD 290000Z 07018KT 8000 NSC 19/02 Q1019 NOSIG
cycle: 0

Station Type Date Time Source
GMAD TAF 2022/01/28 18:18 UTC NOAA

TAF TAF GMAD 281700Z 2818/2924 10017KT 6000 NSC

Example: see airport list